Time;durP1;ratioP1;P1;durP2;ratioP2;P2;SDS_P1;SDS_P2;PMS_P1;PMS_P2;Temp;Humidity;BMP_temperature;BMP_pressure;BME280_temperature;BME280_humidity;BME280_pressure;Samples;Min_cycle;Max_cycle;Signal;HPM_P1;HPM_P2
2022/09/26 00:00:16;;;;;;;;;;;;;;;18.47;70.81;96861.77;545808;260;64987;-73
2022/09/26 00:02:43;;;;;;;;;;;;;;;18.48;72.18;96865.23;545777;260;68563;-73
2022/09/26 00:05:11;;;;;;;;;;;;;;;18.47;71.28;96864.44;545775;260;66602;-73
2022/09/26 00:07:38;;;;;;;;;;;;;;;18.47;71.86;96863.61;545745;260;65222;-73
2022/09/26 00:10:06;;;;;;;;;;;;;;;18.47;71.85;96877.74;545778;256;69161;-73
2022/09/26 00:12:34;;;;;;;;;;;;;;;18.47;71.48;96871.59;545784;260;68995;-73
2022/09/26 00:15:01;;;;;;;;;;;;;;;18.47;71.54;96871.59;545770;260;65088;-73
2022/09/26 00:17:29;;;;;;;;;;;;;;;18.47;70.63;96868.94;545798;260;69017;-73
2022/09/26 00:19:56;;;;;;;;;;;;;;;18.47;70.83;96868.94;545790;260;68337;-73
2022/09/26 00:22:24;;;;;;;;;;;;;;;18.47;70.66;96879.58;546780;259;65227;-72
2022/09/26 00:24:51;;;;;;;;;;;;;;;18.47;71.64;96872.42;545805;260;69110;-73
2022/09/26 00:27:19;;;;;;;;;;;;;;;18.47;71.92;96860.95;545776;260;68702;-73
2022/09/26 00:29:47;;;;;;;;;;;;;;;18.47;72.68;96858.29;545782;260;65059;-73
2022/09/26 00:32:15;;;;;;;;;;;;;;;18.46;72.62;96854.83;545810;260;66246;-72
2022/09/26 00:34:43;;;;;;;;;;;;;;;18.46;72.62;96854.04;545754;260;68843;-72
2022/09/26 00:37:11;;;;;;;;;;;;;;;18.46;71.72;96851.38;545766;260;65070;-72
2022/09/26 00:39:38;;;;;;;;;;;;;;;18.45;71.96;96847.13;545777;260;66934;-72
2022/09/26 00:42:06;;;;;;;;;;;;;;;18.45;71.14;96855.91;545774;260;68847;-72
2022/09/26 00:44:44;;;;;;;;;;;;;;;18.46;72.21;96843.39;545772;260;65346;-73
2022/09/26 00:47:28;;;;;;;;;;;;;;;18.46;72.57;96846.05;545736;257;68916;-73
2022/09/26 00:50:00;;;;;;;;;;;;;;;18.45;71.06;96844.47;545792;260;68685;-73
2022/09/26 00:52:30;;;;;;;;;;;;;;;18.46;71.70;96843.39;545786;260;63046;-72
2022/09/26 00:54:59;;;;;;;;;;;;;;;18.44;70.98;96827.67;545765;260;66887;-73
2022/09/26 00:57:28;;;;;;;;;;;;;;;18.45;71.17;96829.30;545756;260;66699;-72
2022/09/26 00:59:57;;;;;;;;;;;;;;;18.45;71.10;96821.31;545742;259;65122;-72
2022/09/26 01:02:25;;;;;;;;;;;;;;;18.45;71.05;96829.30;545743;259;68894;-72
2022/09/26 01:04:54;;;;;;;;;;;;;;;18.45;71.17;96813.33;540908;259;67605;-72
2022/09/26 01:07:23;;;;;;;;;;;;;;;18.45;71.07;96815.20;545792;260;65113;-72
2022/09/26 01:09:52;;;;;;;;;;;;;;;18.45;70.57;96817.86;545861;259;66782;-72
2022/09/26 01:12:20;;;;;;;;;;;;;;;18.46;70.19;96824.77;545753;260;68812;-72
2022/09/26 01:14:49;;;;;;;;;;;;;;;18.45;71.51;96817.86;545790;260;63860;-73
2022/09/26 01:17:17;;;;;;;;;;;;;;;18.44;72.39;96811.71;545754;260;66689;-73
2022/09/26 01:19:54;;;;;;;;;;;;;;;18.44;71.81;96809.05;545795;260;66310;-73
2022/09/26 01:22:28;;;;;;;;;;;;;;;18.44;71.90;96810.91;545731;259;62949;-73
2022/09/26 01:24:57;;;;;;;;;;;;;;;18.44;71.51;96808.25;545749;260;68873;-73
2022/09/26 01:27:38;;;;;;;;;;;;;;;18.43;70.70;96804.80;545433;260;69107;-73
2022/09/26 01:30:07;;;;;;;;;;;;;;;18.44;70.87;96805.59;545764;260;65142;-73
2022/09/26 01:32:51;;;;;;;;;;;;;;;18.44;71.61;96805.59;545654;260;49253;-73
2022/09/26 01:35:35;;;;;;;;;;;;;;;18.44;71.99;96803.73;539754;259;68817;-73
2022/09/26 01:38:20;;;;;;;;;;;;;;;18.44;72.27;96806.39;547974;259;65397;-73
2022/09/26 01:41:06;;;;;;;;;;;;;;;18.44;72.87;96816.23;547977;259;68986;-73
2022/09/26 01:43:38;;;;;;;;;;;;;;;18.43;72.80;96825.29;547918;259;68836;-73
2022/09/26 01:46:07;;;;;;;;;;;;;;;18.41;72.48;96821.04;547842;259;65338;-73
2022/09/26 01:48:39;;;;;;;;;;;;;;;18.41;71.80;96826.36;545591;260;68525;-73
2022/09/26 01:51:08;;;;;;;;;;;;;;;18.43;72.39;96827.95;545496;260;70906;-73
2022/09/26 01:53:41;;;;;;;;;;;;;;;18.43;72.65;96835.94;545482;260;65616;-73
2022/09/26 01:56:10;;;;;;;;;;;;;;;18.43;72.63;96835.94;542910;260;66846;-73
2022/09/26 01:58:40;;;;;;;;;;;;;;;18.42;72.33;96835.14;545201;260;66735;-73
2022/09/26 02:01:09;;;;;;;;;;;;;;;18.42;71.26;96829.81;545644;257;65120;-73
2022/09/26 02:03:38;;;;;;;;;;;;;;;18.43;71.68;96830.61;545666;259;66724;-73
2022/09/26 02:06:07;;;;;;;;;;;;;;;18.42;71.39;96824.50;545679;260;66728;-73
2022/09/26 02:08:42;;;;;;;;;;;;;;;18.41;70.90;96821.04;545765;257;65212;-73
2022/09/26 02:11:12;;;;;;;;;;;;;;;18.43;71.62;96823.42;545785;260;66600;-73
2022/09/26 02:13:45;;;;;;;;;;;;;;;18.42;71.77;96819.17;545738;260;68745;-73
2022/09/26 02:16:23;;;;;;;;;;;;;;;18.41;72.36;96818.38;545702;259;65120;-73
2022/09/26 02:18:52;;;;;;;;;;;;;;;18.42;72.76;96811.19;545729;260;69227;-73
2022/09/26 02:21:21;;;;;;;;;;;;;;;18.40;72.21;96822.08;545625;259;66750;-73
2022/09/26 02:23:50;;;;;;;;;;;;;;;18.41;72.21;96814.89;545783;260;65050;-73
2022/09/26 02:26:18;;;;;;;;;;;;;;;18.42;72.62;96811.19;545767;260;68918;-73
2022/09/26 02:28:45;;;;;;;;;;;;;;;18.40;72.93;96811.44;545730;260;68802;-73
2022/09/26 02:31:19;;;;;;;;;;;;;;;18.41;71.79;96809.57;545742;260;64972;-73
2022/09/26 02:33:46;;;;;;;;;;;;;;;18.40;71.32;96811.44;545671;259;68886;-73
2022/09/26 02:36:14;;;;;;;;;;;;;;;18.41;72.47;96812.23;545763;260;66467;-73
2022/09/26 02:38:41;;;;;;;;;;;;;;;18.40;71.92;96808.77;545780;260;65225;-73
2022/09/26 02:41:32;;;;;;;;;;;;;;;18.40;70.93;96795.47;544334;260;49305;-73
2022/09/26 02:44:13;;;;;;;;;;;;;;;18.41;71.62;96801.59;545726;260;69061;-73
2022/09/26 02:46:59;;;;;;;;;;;;;;;18.40;71.26;96790.15;545753;260;65128;-73
2022/09/26 02:49:34;;;;;;;;;;;;;;;18.41;72.31;96794.43;545742;260;66694;-73
2022/09/26 02:52:21;;;;;;;;;;;;;;;18.40;72.07;96795.47;545742;260;68706;-73
2022/09/26 02:54:59;;;;;;;;;;;;;;;18.40;70.90;96792.81;545557;260;65406;-73
2022/09/26 02:57:31;;;;;;;;;;;;;;;18.40;71.39;96789.36;545581;260;66507;-73
2022/09/26 03:00:00;;;;;;;;;;;;;;;18.40;71.22;96784.83;545800;256;66537;-73
2022/09/26 03:02:31;;;;;;;;;;;;;;;18.40;72.22;96782.17;545762;260;65489;-73
2022/09/26 03:05:14;;;;;;;;;;;;;;;18.40;71.58;96795.47;545763;259;50559;-73
2022/09/26 03:07:43;;;;;;;;;;;;;;;18.40;71.58;96792.81;545777;260;68477;-73
2022/09/26 03:10:12;;;;;;;;;;;;;;;18.39;72.63;96775.25;545756;259;62922;-73
2022/09/26 03:12:43;;;;;;;;;;;;;;;18.40;72.31;96784.83;545793;260;68925;-73
2022/09/26 03:15:12;;;;;;;;;;;;;;;18.39;71.38;96777.92;545787;256;68678;-73
2022/09/26 03:17:44;;;;;;;;;;;;;;;18.39;71.38;96783.23;545778;260;63228;-73
2022/09/26 03:20:13;;;;;;;;;;;;;;;18.39;71.25;96780.58;545769;260;68768;-73
2022/09/26 03:22:41;;;;;;;;;;;;;;;18.39;70.66;96777.92;545792;260;68578;-73
2022/09/26 03:25:11;;;;;;;;;;;;;;;18.40;70.92;96771.53;545785;260;63038;-73
2022/09/26 03:27:42;;;;;;;;;;;;;;;18.39;70.72;96772.59;545817;256;68940;-73
2022/09/26 03:30:14;;;;;;;;;;;;;;;18.40;70.68;96770.73;545733;260;68708;-73
2022/09/26 03:32:43;;;;;;;;;;;;;;;18.40;71.20;96768.07;545550;260;46723;-73
2022/09/26 03:35:11;;;;;;;;;;;;;;;18.40;72.43;96762.75;545747;260;68865;-73
2022/09/26 03:37:39;;;;;;;;;;;;;;;18.40;72.34;96768.87;545758;260;66715;-73
2022/09/26 03:40:08;;;;;;;;;;;;;;;18.39;72.02;96761.95;545802;260;63105;-73
2022/09/26 03:42:37;;;;;;;;;;;;;;;18.39;72.96;96761.16;545317;260;47949;-73
2022/09/26 03:45:07;;;;;;;;;;;;;;;18.38;72.81;96752.35;545744;260;66731;-73
2022/09/26 03:47:40;;;;;;;;;;;;;;;18.38;72.41;96757.67;545086;260;47181;-73
2022/09/26 03:50:08;;;;;;;;;;;;;;;18.38;71.43;96757.67;545759;257;66772;-73
2022/09/26 03:52:36;;;;;;;;;;;;;;;18.38;72.15;96749.69;545774;260;68476;-73
2022/09/26 03:55:04;;;;;;;;;;;;;;;18.38;71.76;96752.35;545776;260;63307;-73
2022/09/26 03:57:31;;;;;;;;;;;;;;;18.39;72.32;96745.20;545758;256;68835;-73
2022/09/26 04:00:01;;;;;;;;;;;;;;;18.38;71.63;96744.38;545542;260;50239;-73
2022/09/26 04:02:30;;;;;;;;;;;;;;;18.38;72.90;96741.71;545319;260;45119;-73
2022/09/26 04:04:59;;;;;;;;;;;;;;;18.38;72.16;96740.92;545559;260;48824;-73
2022/09/26 04:07:27;;;;;;;;;;;;;;;18.38;72.72;96743.58;545766;260;66730;-73
2022/09/26 04:09:54;;;;;;;;;;;;;;;18.37;73.01;96740.13;545774;259;65258;-72
2022/09/26 04:12:22;;;;;;;;;;;;;;;18.37;72.29;96740.13;545754;260;68930;-73
2022/09/26 04:14:49;;;;;;;;;;;;;;;18.37;72.79;96721.50;545763;260;66694;-73
2022/09/26 04:17:17;;;;;;;;;;;;;;;18.37;72.97;96737.47;545774;260;64999;-73
2022/09/26 04:19:47;;;;;;;;;;;;;;;18.36;72.57;96740.38;545789;260;66431;-73
2022/09/26 04:22:14;;;;;;;;;;;;;;;18.37;73.01;96745.44;545760;260;67029;-73
2022/09/26 04:24:43;;;;;;;;;;;;;;;18.36;72.91;96746.52;545761;260;65092;-73
2022/09/26 04:27:12;;;;;;;;;;;;;;;18.37;72.30;96747.31;545809;259;55409;-73
2022/09/26 04:29:40;;;;;;;;;;;;;;;18.37;72.67;96742.78;545786;260;68855;-72
2022/09/26 04:32:20;;;;;;;;;;;;;;;18.35;71.26;96750.22;545111;260;45094;-74
2022/09/26 04:35:03;;;;;;;;;;;;;;;18.36;71.36;96751.84;545911;260;40694;-73
2022/09/26 04:37:30;;;;;;;;;;;;;;;18.36;71.05;96740.38;545792;260;68595;-73
2022/09/26 04:39:58;;;;;;;;;;;;;;;18.38;71.63;96759.54;545771;260;63923;-73
2022/09/26 04:42:25;;;;;;;;;;;;;;;18.37;72.10;96749.97;545807;260;69048;-73
2022/09/26 04:44:53;;;;;;;;;;;;;;;18.37;71.59;96753.42;540938;260;67934;-73
2022/09/26 04:47:20;;;;;;;;;;;;;;;18.35;71.20;96758.20;545785;260;65286;-73
2022/09/26 04:49:59;;;;;;;;;;;;;;;18.37;71.15;96752.63;540026;260;48530;-72
2022/09/26 04:52:27;;;;;;;;;;;;;;;18.37;72.06;96748.10;545775;260;68613;-73
2022/09/26 04:54:54;;;;;;;;;;;;;;;18.36;71.94;96743.03;545776;260;65116;-73
2022/09/26 04:57:22;;;;;;;;;;;;;;;18.37;72.85;96739.33;545775;260;66737;-73
2022/09/26 04:59:50;;;;;;;;;;;;;;;18.35;72.97;96742.23;545783;256;68760;-73
2022/09/26 05:02:19;;;;;;;;;;;;;;;18.35;72.41;96739.58;545812;260;63872;-73
2022/09/26 05:04:47;;;;;;;;;;;;;;;18.35;72.01;96739.58;545786;260;69068;-73
2022/09/26 05:07:15;;;;;;;;;;;;;;;18.35;71.91;96741.44;545773;256;66512;-73
2022/09/26 05:09:43;;;;;;;;;;;;;;;18.35;72.14;96738.78;545769;259;65106;-73
2022/09/26 05:12:12;;;;;;;;;;;;;;;18.34;71.90;96743.30;545714;260;49805;-73
2022/09/26 05:14:43;;;;;;;;;;;;;;;18.35;72.08;96754.74;545624;260;49035;-73
2022/09/26 05:17:10;;;;;;;;;;;;;;;18.35;71.36;96744.09;545774;260;65063;-73
2022/09/26 05:19:38;;;;;;;;;;;;;;;18.35;71.68;96744.89;545761;260;66748;-73
2022/09/26 05:22:23;;;;;;;;;;;;;;;18.35;72.01;96741.44;545869;257;40777;-73
2022/09/26 05:27:38;;;;;;;;;;;;;;;18.35;71.37;96747.55;546735;259;49550;-74
2022/09/26 05:30:06;;;;;;;;;;;;;;;18.35;71.55;96739.58;545808;260;68788;-72
2022/09/26 05:32:34;;;;;;;;;;;;;;;18.34;71.08;96732.66;545835;260;65073;-72
2022/09/26 05:35:04;;;;;;;;;;;;;;;18.35;70.98;96744.89;545741;257;68519;-72
2022/09/26 05:37:32;;;;;;;;;;;;;;;18.35;70.61;96744.09;545668;260;66768;-73
2022/09/26 05:42:47;;;;;;;;;;;;;;;18.35;70.93;96739.58;545755;256;48561;-73
2022/09/26 05:45:15;;;;;;;;;;;;;;;18.36;71.28;96732.39;545735;260;68776;-72
2022/09/26 05:47:42;;;;;;;;;;;;;;;18.34;72.03;96727.34;545781;260;63021;-72
2022/09/26 05:50:10;;;;;;;;;;;;;;;18.34;71.55;96727.34;540826;260;68313;-72
2022/09/26 05:52:39;;;;;;;;;;;;;;;18.34;70.99;96722.02;545681;257;68612;-69
2022/09/26 05:55:10;;;;;;;;;;;;;;;18.34;71.26;96719.36;546312;256;65343;-71
2022/09/26 05:58:01;;;;;;;;;;;;;;;18.34;71.68;96714.05;545584;260;42029;-72
2022/09/26 06:00:27;;;;;;;;;;;;;;;18.34;71.15;96708.72;546466;259;50170;-74
2022/09/26 06:02:58;;;;;;;;;;;;;;;18.34;71.98;96710.59;545764;260;64988;-67
2022/09/26 06:05:32;;;;;;;;;;;;;;;18.34;71.83;96707.92;545545;260;50073;-69
2022/09/26 06:08:14;;;;;;;;;;;;;;;18.33;72.07;96701.81;545625;257;49831;-69
2022/09/26 06:10:43;;;;;;;;;;;;;;;18.33;71.98;96704.47;545711;260;45400;-71
2022/09/26 06:13:14;;;;;;;;;;;;;;;18.34;71.94;96710.59;545394;260;69528;-74
2022/09/26 06:15:47;;;;;;;;;;;;;;;18.31;71.14;96711.11;545393;256;48557;-67
2022/09/26 06:18:14;;;;;;;;;;;;;;;18.32;71.06;96710.04;545512;260;63006;-69
2022/09/26 06:20:44;;;;;;;;;;;;;;;18.34;71.40;96710.59;545401;259;68879;-69
2022/09/26 06:23:13;;;;;;;;;;;;;;;18.35;72.09;96712.17;540527;260;69192;-68
2022/09/26 06:25:42;;;;;;;;;;;;;;;18.35;72.95;96712.17;545252;260;44870;-67
2022/09/26 06:28:10;;;;;;;;;;;;;;;18.35;73.24;96712.17;545312;260;68905;-68
2022/09/26 06:30:38;;;;;;;;;;;;;;;18.34;72.48;96711.38;545517;260;69283;-70
2022/09/26 06:33:11;;;;;;;;;;;;;;;18.35;72.42;96712.17;545272;260;45103;-69
2022/09/26 06:35:44;;;;;;;;;;;;;;;18.35;72.27;96706.86;542720;260;49980;-68
2022/09/26 06:38:19;;;;;;;;;;;;;;;18.35;72.31;96715.63;545485;259;48618;-67
2022/09/26 06:40:46;;;;;;;;;;;;;;;18.36;71.92;96724.41;545536;260;65163;-68
2022/09/26 06:43:14;;;;;;;;;;;;;;;18.35;72.58;96726.27;545493;260;68802;-74
2022/09/26 06:45:59;;;;;;;;;;;;;;;18.35;72.45;96723.61;545759;259;40638;-73
2022/09/26 06:48:28;;;;;;;;;;;;;;;18.35;71.50;96707.65;545380;259;45049;-73
2022/09/26 06:50:59;;;;;;;;;;;;;;;18.35;70.71;96709.52;545542;259;50073;-71
2022/09/26 06:53:28;;;;;;;;;;;;;;;18.35;71.49;96707.65;545529;259;68791;-70
2022/09/26 06:55:58;;;;;;;;;;;;;;;18.37;71.44;96713.52;545493;260;64895;-70
2022/09/26 06:58:26;;;;;;;;;;;;;;;18.38;72.83;96711.66;545468;260;69093;-72
2022/09/26 07:00:57;;;;;;;;;;;;;;;18.38;72.01;96716.97;544911;260;48547;-71
2022/09/26 07:03:27;;;;;;;;;;;;;;;18.38;70.73;96714.31;544790;260;44706;-71
2022/09/26 07:05:57;;;;;;;;;;;;;;;18.37;70.59;96710.86;545104;260;51710;-66
2022/09/26 07:08:25;;;;;;;;;;;;;;;18.38;70.97;96701.80;539395;262;68737;-70
2022/09/26 07:10:54;;;;;;;;;;;;;;;18.38;70.84;96701.01;538237;263;63048;-71
2022/09/26 07:13:23;;;;;;;;;;;;;;;18.38;71.16;96701.80;538270;263;48041;-72
2022/09/26 07:15:50;;;;;;;;;;;;;;;18.39;71.56;96707.95;539507;263;66508;-69
2022/09/26 07:18:27;;;;;;;;;;;;;;;18.39;71.04;96707.95;534205;263;45101;-72
2022/09/26 07:20:56;;;;;;;;;;;;;;;18.38;71.09;96699.14;539670;261;48199;-73
2022/09/26 07:23:31;;;;;;;;;;;;;;;18.40;71.23;96706.88;539364;262;50424;-70
2022/09/26 07:25:58;;;;;;;;;;;;;;;18.39;70.67;96699.97;539854;262;65089;-74
2022/09/26 07:28:26;;;;;;;;;;;;;;;18.41;69.43;96708.47;539869;263;68759;-68
2022/09/26 07:31:00;;;;;;;;;;;;;;;18.43;67.99;96702.89;539800;262;66591;-69
2022/09/26 07:33:43;;;;;;;;;;;;;;;18.43;70.54;96705.55;539742;263;45084;-72
2022/09/26 07:36:11;;;;;;;;;;;;;;;18.43;70.67;96709.02;539822;263;66412;-66
2022/09/26 07:38:39;;;;;;;;;;;;;;;18.42;67.91;96707.42;539871;262;68692;-71
2022/09/26 07:41:10;;;;;;;;;;;;;;;18.43;69.41;96698.37;539824;263;65167;-69
2022/09/26 07:43:37;;;;;;;;;;;;;;;18.43;70.60;96692.25;539753;263;66804;-71
2022/09/26 07:51:56;;;;;;;;;;;;;;;18.41;72.08;96701.31;540094;262;40376;-72
2022/09/26 07:54:25;;;;;;;;;;;;;;;18.40;70.37;96696.23;540835;260;51096;-74
2022/09/26 07:57:11;;;;;;;;;;;;;;;18.41;69.71;96688.00;541192;262;39273;-71
2022/09/26 07:59:44;;;;;;;;;;;;;;;18.43;71.02;96690.39;533691;262;50672;-73
2022/09/26 08:02:33;;;;;;;;;;;;;;;18.44;68.64;96683.20;540123;262;40374;-69
2022/09/26 08:04:59;;;;;;;;;;;;;;;18.44;69.56;96678.67;539992;260;63059;-70
2022/09/26 08:07:26;;;;;;;;;;;;;;;18.45;69.51;96676.84;539979;262;68576;-72
2022/09/26 08:09:57;;;;;;;;;;;;;;;18.47;68.20;96693.31;539943;261;51597;-72
2022/09/26 08:12:42;;;;;;;;;;;;;;;18.47;67.13;96685.33;528956;267;46332;-70
2022/09/26 08:15:12;;;;;;;;;;;;;;;18.48;68.11;96694.94;536447;262;50136;-73
2022/09/26 08:17:42;;;;;;;;;;;;;;;18.50;67.76;96688.29;539982;262;50014;-73
2022/09/26 08:20:10;;;;;;;;;;;;;;;18.51;71.19;96684.55;540057;262;65198;-73
2022/09/26 08:22:38;;;;;;;;;;;;;;;18.50;66.64;96674.19;540030;262;68893;-74
2022/09/26 08:25:06;;;;;;;;;;;;;;;18.51;66.72;96665.14;540004;262;68712;-74
2022/09/26 08:27:52;;;;;;;;;;;;;;;18.50;67.72;96663.55;540147;262;39255;-72
2022/09/26 08:30:26;;;;;;;;;;;;;;;18.50;68.86;96661.68;540074;262;49980;-73
2022/09/26 08:32:54;;;;;;;;;;;;;;;18.50;69.28;96669.66;539918;262;68925;-73
2022/09/26 08:35:21;;;;;;;;;;;;;;;18.50;69.56;96652.91;540041;262;63904;-73
2022/09/26 08:37:58;;;;;;;;;;;;;;;18.50;69.49;96644.92;540071;261;51017;-73
2022/09/26 08:40:50;;;;;;;;;;;;;;;18.50;69.66;96645.72;540081;262;51671;-71
2022/09/26 08:43:40;;;;;;;;;;;;;;;18.49;69.72;96628.12;540124;262;39231;-70
2022/09/26 08:49:13;;;;;;;;;;;;;;;18.49;70.55;96628.12;529882;262;51122;-70
2022/09/26 08:51:35;;;;;;;;;;;;;;;18.49;71.04;96622.02;539747;260;65484;-75
2022/09/26 08:54:05;;;;;;;;;;;;;;;18.48;70.89;96621.22;539983;262;67626;-70
2022/09/26 08:56:34;;;;;;;;;;;;;;;18.49;70.29;96608.71;539989;260;66582;-74
2022/09/26 08:59:03;;;;;;;;;;;;;;;18.48;70.20;96594.61;539938;262;64996;-68
2022/09/26 09:01:34;;;;;;;;;;;;;;;18.52;69.43;96585.02;539991;262;66932;-72
2022/09/26 09:04:17;;;;;;;;;;;;;;;18.57;69.92;96586.90;539822;262;50205;-73
2022/09/26 09:06:46;;;;;;;;;;;;;;;18.58;70.05;96580.53;539982;259;64983;-74
2022/09/26 09:09:15;;;;;;;;;;;;;;;18.59;69.79;96574.13;540055;261;68978;-75
2022/09/26 09:11:49;;;;;;;;;;;;;;;18.60;68.27;96567.73;539911;262;48526;-73
2022/09/26 09:14:36;;;;;;;;;;;;;;;18.61;67.31;96561.37;540056;262;65168;-73
2022/09/26 09:17:17;;;;;;;;;;;;;;;18.75;68.12;96567.78;635972;222;35563;-76
2022/09/26 09:20:04;;;;;;;;;;;;;;;18.63;68.55;96569.86;626162;226;42822;-73
2022/09/26 09:22:50;;;;;;;;;;;;;;;18.63;69.22;96569.86;625579;226;45743;-71
2022/09/26 09:25:30;;;;;;;;;;;;;;;18.64;69.62;96569.61;625825;226;45574;-73
2022/09/26 09:28:09;;;;;;;;;;;;;;;18.63;69.70;96562.70;626200;226;65007;-72
2022/09/26 09:30:40;;;;;;;;;;;;;;;18.65;69.96;96565.08;626150;226;65170;-72
2022/09/26 09:33:14;;;;;;;;;;;;;;;18.63;70.13;96560.04;618001;226;45657;-73
2022/09/26 09:35:48;;;;;;;;;;;;;;;18.64;70.22;96552.84;624273;226;47559;-73
2022/09/26 09:38:24;;;;;;;;;;;;;;;18.65;70.25;96549.11;625944;226;47911;-74
2022/09/26 09:41:11;;;;;;;;;;;;;;;18.65;70.40;96546.45;626302;226;36100;-72
2022/09/26 09:43:50;;;;;;;;;;;;;;;18.66;70.41;96533.94;626265;226;65173;-73
2022/09/26 09:46:28;;;;;;;;;;;;;;;18.64;70.49;96532.34;626192;226;64619;-70
2022/09/26 09:49:09;;;;;;;;;;;;;;;18.66;70.53;96536.59;626238;226;62084;-71
2022/09/26 09:51:51;;;;;;;;;;;;;;;18.66;70.54;96524.11;626245;226;65524;-70
2022/09/26 09:54:23;;;;;;;;;;;;;;;18.65;70.50;96519.83;621652;226;62258;-69
2022/09/26 09:57:02;;;;;;;;;;;;;;;18.66;70.54;96509.98;626001;226;64231;-70
2022/09/26 09:59:35;;;;;;;;;;;;;;;18.67;70.55;96512.39;620979;226;62599;-69
2022/09/26 10:02:12;;;;;;;;;;;;;;;18.66;70.62;96502.81;616994;226;44135;-68
2022/09/26 10:04:42;;;;;;;;;;;;;;;18.67;70.56;96507.06;626228;226;64393;-69
2022/09/26 10:07:11;;;;;;;;;;;;;;;18.67;70.55;96492.97;626137;226;62940;-70
2022/09/26 10:09:40;;;;;;;;;;;;;;;18.68;70.57;96503.33;626175;226;64631;-69
2022/09/26 10:12:20;;;;;;;;;;;;;;;18.67;70.56;96499.08;613257;231;46509;-71
2022/09/26 10:15:25;;;;;;;;;;;;;;;18.67;70.45;96499.08;613617;230;46026;-69
2022/09/26 10:17:59;;;;;;;;;;;;;;;18.67;70.79;96499.08;610561;230;47051;-70
2022/09/26 10:20:36;;;;;;;;;;;;;;;18.67;71.53;96501.73;620727;225;45219;-69
2022/09/26 10:23:06;;;;;;;;;;;;;;;18.67;71.94;96499.08;626956;226;65116;-70
2022/09/26 10:25:33;;;;;;;;;;;;;;;18.66;70.19;96494.02;626685;225;62117;-70
2022/09/26 10:28:04;;;;;;;;;;;;;;;18.63;70.51;96482.86;626729;226;62014;-70
2022/09/26 10:30:32;;;;;;;;;;;;;;;18.62;70.75;96483.11;626831;225;64893;-69
2022/09/26 10:33:05;;;;;;;;;;;;;;;18.63;70.93;96487.36;626764;226;65039;-70
2022/09/26 10:35:41;;;;;;;;;;;;;;;18.61;70.93;96479.66;620995;226;45586;-70
2022/09/26 10:38:23;;;;;;;;;;;;;;;18.61;70.99;96477.00;626839;226;62458;-70
2022/09/26 10:40:54;;;;;;;;;;;;;;;18.61;70.99;96490.30;626844;225;42872;-71
2022/09/26 10:43:29;;;;;;;;;;;;;;;18.61;70.94;96490.30;626711;226;62358;-71
2022/09/26 10:46:05;;;;;;;;;;;;;;;18.60;71.02;96486.03;626829;225;43643;-71
2022/09/26 10:48:52;;;;;;;;;;;;;;;18.60;71.04;96488.69;626886;226;36466;-66
2022/09/26 10:51:41;;;;;;;;;;;;;;;18.61;69.57;96492.17;626240;226;43221;-68
2022/09/26 10:54:15;;;;;;;;;;;;;;;18.61;67.54;96492.17;626813;226;65599;-68
2022/09/26 10:56:46;;;;;;;;;;;;;;;18.62;69.33;96494.55;626626;226;64700;-70
2022/09/26 10:59:15;;;;;;;;;;;;;;;18.62;70.58;96483.91;626718;226;64615;-70
2022/09/26 11:01:44;;;;;;;;;;;;;;;18.63;70.52;96479.37;626869;226;62950;-71
2022/09/26 11:05:55;;;;;;;;;;;;;;;18.64;67.82;96475.67;626754;226;61767;-70
2022/09/26 11:06:57;;;;;;;;;;;;;;;18.63;71.31;96471.39;625639;226;45368;-71
2022/09/26 11:09:33;;;;;;;;;;;;;;;18.62;71.05;96469.80;626797;225;43517;-73
2022/09/26 11:12:24;;;;;;;;;;;;;;;18.61;68.66;96454.92;626211;226;42455;-75
2022/09/26 11:14:56;;;;;;;;;;;;;;;18.62;70.78;96467.94;626364;226;62160;-72
2022/09/26 11:17:25;;;;;;;;;;;;;;;18.60;70.64;96464.73;624619;227;65132;-74
2022/09/26 11:19:55;;;;;;;;;;;;;;;18.60;70.42;96462.08;624559;226;64561;-73
2022/09/26 11:22:36;;;;;;;;;;;;;;;18.59;70.42;96463.16;624842;226;61886;-72
2022/09/26 11:25:08;;;;;;;;;;;;;;;18.59;70.29;96457.04;624589;226;65269;-66
2022/09/26 11:27:43;;;;;;;;;;;;;;;18.59;70.33;96457.04;624841;226;65382;-69
2022/09/26 11:30:18;;;;;;;;;;;;;;;18.59;70.18;96462.36;624935;226;43945;-71
2022/09/26 11:32:47;;;;;;;;;;;;;;;18.59;70.58;96463.16;624872;226;43925;-65
2022/09/26 11:35:17;;;;;;;;;;;;;;;18.60;68.34;96450.64;624350;227;45664;-71
2022/09/26 11:37:49;;;;;;;;;;;;;;;18.65;69.42;96450.63;624933;227;64761;-74
2022/09/26 11:40:25;;;;;;;;;;;;;;;18.67;69.67;96437.86;624880;227;62742;-68
2022/09/26 11:43:02;;;;;;;;;;;;;;;18.67;69.42;96429.88;624394;227;65485;-70
2022/09/26 11:45:31;;;;;;;;;;;;;;;18.69;69.46;96432.25;621363;227;63173;-67
2022/09/26 11:48:19;;;;;;;;;;;;;;;18.70;69.30;96431.20;625001;227;41214;-68
2022/09/26 11:51:01;;;;;;;;;;;;;;;18.69;69.16;96427.75;624423;227;42972;-69
2022/09/26 11:53:33;;;;;;;;;;;;;;;18.69;69.23;96425.09;624783;226;41965;-73
2022/09/26 11:56:02;;;;;;;;;;;;;;;18.71;69.26;96424.80;624767;227;62722;-68
2022/09/26 11:58:47;;;;;;;;;;;;;;;18.71;69.20;96417.61;624794;227;64262;-67
2022/09/26 12:01:22;;;;;;;;;;;;;;;18.72;69.20;96424.55;624818;227;64409;-69
2022/09/26 12:04:00;;;;;;;;;;;;;;;18.72;68.20;96427.21;624672;226;66022;-69
2022/09/26 12:06:39;;;;;;;;;;;;;;;18.71;68.79;96432.79;624908;227;62179;-72
2022/09/26 12:09:14;;;;;;;;;;;;;;;18.69;68.74;96426.94;613623;231;64456;-72
2022/09/26 12:11:47;;;;;;;;;;;;;;;18.68;69.19;96420.81;624932;227;63883;-69
2022/09/26 12:14:16;;;;;;;;;;;;;;;18.67;69.42;96415.78;624879;227;64713;-69
2022/09/26 12:16:48;;;;;;;;;;;;;;;18.68;69.42;96428.80;624861;226;65088;-66
2022/09/26 12:19:20;;;;;;;;;;;;;;;18.68;69.53;96430.67;624907;227;66046;-68
2022/09/26 12:24:39;;;;;;;;;;;;;;;18.66;69.57;96420.31;624960;227;64535;-67
2022/09/26 12:27:08;;;;;;;;;;;;;;;18.67;69.49;96429.09;618285;226;65140;-68
2022/09/26 12:29:44;;;;;;;;;;;;;;;18.66;69.40;96414.17;624646;226;62097;-68
2022/09/26 12:32:16;;;;;;;;;;;;;;;18.66;69.36;96414.98;624828;226;64375;-71
2022/09/26 12:34:48;;;;;;;;;;;;;;;18.67;69.04;96408.59;624721;226;65228;-69
2022/09/26 12:37:23;;;;;;;;;;;;;;;18.69;67.46;96413.63;624803;227;64403;-68
2022/09/26 12:39:51;;;;;;;;;;;;;;;18.71;66.66;96411.50;624863;227;62081;-68
2022/09/26 12:42:37;;;;;;;;;;;;;;;18.71;65.39;96422.94;624767;226;62720;-68
2022/09/26 12:45:23;;;;;;;;;;;;;;;18.72;65.36;96413.91;624867;227;64724;-69
2022/09/26 12:47:58;;;;;;;;;;;;;;;18.74;65.38;96417.13;624940;227;64362;-67
2022/09/26 12:50:43;;;;;;;;;;;;;;;18.73;66.19;96410.16;624770;226;65074;-67
2022/09/26 12:53:17;;;;;;;;;;;;;;;18.74;66.18;96402.97;624885;227;62051;-68
2022/09/26 12:55:49;;;;;;;;;;;;;;;18.73;69.01;96399.52;624633;227;65114;-68
2022/09/26 12:58:23;;;;;;;;;;;;;;;18.71;68.80;96383.01;624706;226;65985;-68
2022/09/26 13:01:11;;;;;;;;;;;;;;;18.70;68.89;96380.64;624714;226;62753;-68
2022/09/26 13:03:43;;;;;;;;;;;;;;;18.68;68.70;96380.89;624962;227;64316;-69
2022/09/26 13:06:15;;;;;;;;;;;;;;;18.69;68.71;96387.83;624791;226;65219;-68
2022/09/26 13:08:54;;;;;;;;;;;;;;;18.69;68.85;96382.51;624939;227;65358;-67
2022/09/26 13:11:21;;;;;;;;;;;;;;;18.68;68.96;96375.57;624817;226;64308;-68
2022/09/26 13:13:50;;;;;;;;;;;;;;;18.68;69.00;96388.87;624321;227;64873;-67
2022/09/26 13:16:26;;;;;;;;;;;;;;;18.69;69.06;96387.01;624564;226;64558;-68
2022/09/26 13:18:56;;;;;;;;;;;;;;;18.68;69.18;96378.23;624901;227;64120;-68
2022/09/26 13:21:25;;;;;;;;;;;;;;;18.70;68.39;96377.97;624457;227;64882;-68
2022/09/26 13:23:57;;;;;;;;;;;;;;;18.75;67.83;96375.33;624714;226;64415;-72
2022/09/26 13:26:32;;;;;;;;;;;;;;;18.76;68.91;96371.59;624861;227;64247;-76
2022/09/26 13:29:05;;;;;;;;;;;;;;;18.78;68.54;96356.15;624887;227;64925;-73
2022/09/26 13:31:41;;;;;;;;;;;;;;;18.77;68.33;96344.71;624858;226;62409;-72